EGLL/LHR METAR and TAF weather

Enter ICAO airport designator
Station Type Date Time Source
EGLL METAR 2020/02/21 15:20 UTC NOAA

EGLL 211520Z AUTO 24018KT 9999 BKN032 11/04 Q1021 NOSIG


Station Type Date Time Source
EGLL Decoded METAR 2020/02/21 15:20 UTC NOAA

London / Heathrow Airport, United Kingdom (EGLL) 51-29N 000-27W 0M
Feb 21, 2020 - 10:20 AM EST / 2020.02.21 1520 UTC
Wind: from the WSW (240 degrees) at 21 MPH (18 KT):0
Visibility: greater than 7 mile(s):0
Sky conditions: mostly cloudy
Temperature: 51 F (11 C)
Dew Point: 39 F (4 C)
Relative Humidity: 61%
Pressure (altimeter): 30.15 in. Hg (1021 hPa)
ob: EGLL 211520Z AUTO 24018KT 9999 BKN032 11/04 Q1021 NOSIG
cycle: 15

Station Type Date Time Source
EGLL TAF 2020/02/21 12:20 UTC NOAA

TAF EGLL 211111Z 2112/2218 24018G30KT 9999 SCT035 PROB30
TEMPO 2120/2124 8000 -RA BKN014 PROB30
TEMPO 2121/2208 21022G35KT
BECMG 2200/2203 BKN012
TEMPO 2200/2208 6000 RA
BECMG 2207/2210 SCT020

Example: see airport list